createdAt,value
2018-07-11T00:00:10.016Z,1.60
2018-07-11T00:02:38.248Z,1.70
2018-07-11T00:05:06.525Z,1.80
2018-07-11T00:07:34.749Z,1.90
2018-07-11T00:10:03.115Z,1.70
2018-07-11T00:12:31.325Z,1.87
2018-07-11T00:14:59.559Z,1.80
2018-07-11T00:17:27.733Z,1.60
2018-07-11T00:19:56.029Z,1.87
2018-07-11T00:22:24.293Z,2.33
2018-07-11T00:24:52.556Z,2.00
2018-07-11T00:27:20.800Z,1.90
2018-07-11T00:29:49.040Z,1.80
2018-07-11T00:32:17.512Z,1.90
2018-07-11T00:34:45.800Z,1.87
2018-07-11T00:37:14.120Z,1.97
2018-07-11T00:39:42.329Z,1.77
2018-07-11T00:42:10.581Z,2.00
2018-07-11T00:44:38.850Z,1.73
2018-07-11T00:47:07.114Z,1.87
2018-07-11T00:49:35.341Z,1.77
2018-07-11T00:52:03.578Z,2.47
2018-07-11T00:54:31.821Z,2.20
2018-07-11T00:57:00.502Z,2.03
2018-07-11T00:59:30.239Z,2.13
2018-07-11T01:02:03.951Z,1.97
2018-07-11T01:04:32.587Z,2.37
2018-07-11T01:07:04.013Z,1.90
2018-07-11T01:09:33.024Z,2.20
2018-07-11T01:12:01.273Z,2.10
2018-07-11T01:14:29.513Z,2.47
2018-07-11T01:16:57.768Z,2.00
2018-07-11T01:19:26.025Z,2.10
2018-07-11T01:22:02.109Z,2.10
2018-07-11T01:24:31.208Z,2.33
2018-07-11T01:27:00.352Z,2.63
2018-07-11T01:29:28.579Z,2.40
2018-07-11T01:31:56.852Z,2.07
2018-07-11T01:34:25.073Z,2.23
2018-07-11T01:36:53.297Z,2.67
2018-07-11T01:39:21.540Z,2.77
2018-07-11T01:41:49.789Z,2.87
2018-07-11T01:44:18.021Z,2.73
2018-07-11T01:46:48.264Z,2.97
2018-07-11T01:49:16.508Z,2.83
2018-07-11T01:51:56.708Z,3.73
2018-07-11T01:54:25.260Z,2.97
2018-07-11T01:56:53.548Z,2.70
2018-07-11T01:59:22.251Z,2.30
2018-07-11T02:01:50.729Z,3.40
2018-07-11T02:04:18.993Z,2.77
2018-07-11T02:06:47.237Z,2.57
2018-07-11T02:09:15.512Z,3.13
2018-07-11T02:11:43.764Z,3.70
2018-07-11T02:14:12.091Z,3.87
2018-07-11T02:16:40.338Z,3.87
2018-07-11T02:19:08.592Z,3.40
2018-07-11T02:21:36.861Z,3.60
2018-07-11T02:24:05.556Z,3.33
2018-07-11T02:26:33.800Z,3.77
2018-07-11T02:29:02.119Z,3.43
2018-07-11T02:31:30.413Z,3.60
2018-07-11T02:33:58.896Z,3.70
2018-07-11T02:36:27.161Z,3.40
2018-07-11T02:38:55.398Z,2.87
2018-07-11T02:41:23.645Z,3.70
2018-07-11T02:43:51.842Z,2.80
2018-07-11T02:46:24.262Z,2.93
2018-07-11T02:48:52.493Z,3.07
2018-07-11T02:51:20.737Z,2.87
2018-07-11T02:53:48.969Z,3.17
2018-07-11T02:56:17.201Z,2.77
2018-07-11T02:58:45.441Z,3.07
2018-07-11T03:01:13.678Z,2.87
2018-07-11T03:03:41.917Z,3.73
2018-07-11T03:06:10.136Z,3.70
2018-07-11T03:08:38.953Z,3.93
2018-07-11T03:11:07.200Z,4.57
2018-07-11T03:13:35.610Z,4.63
2018-07-11T03:16:03.850Z,5.90
2018-07-11T03:18:32.176Z,4.87
2018-07-11T03:21:00.454Z,4.33
2018-07-11T03:23:28.728Z,5.33
2018-07-11T03:25:57.015Z,4.50
2018-07-11T03:28:25.252Z,4.60
2018-07-11T03:30:53.461Z,4.97
2018-07-11T03:33:21.688Z,5.17
2018-07-11T03:35:49.939Z,5.70
2018-07-11T03:38:18.253Z,5.63
2018-07-11T03:40:46.505Z,5.20
2018-07-11T03:43:14.732Z,5.87
2018-07-11T03:45:42.960Z,5.00
2018-07-11T03:48:11.216Z,5.57
2018-07-11T03:50:39.445Z,6.53
2018-07-11T03:53:07.693Z,5.53
2018-07-11T03:55:35.930Z,5.57
2018-07-11T03:58:04.138Z,6.97
2018-07-11T04:00:32.349Z,6.90
2018-07-11T04:03:00.629Z,7.23
2018-07-11T04:05:28.837Z,6.80
2018-07-11T04:07:57.146Z,5.70
2018-07-11T04:10:25.333Z,6.63
2018-07-11T04:13:01.534Z,6.97
2018-07-11T04:15:29.802Z,9.27
2018-07-11T04:17:58.036Z,6.77
2018-07-11T04:20:26.331Z,9.13
2018-07-11T04:22:54.584Z,8.20
2018-07-11T04:25:22.933Z,8.57
2018-07-11T04:27:51.188Z,9.47
2018-07-11T04:30:19.479Z,10.10
2018-07-11T04:32:47.781Z,9.93
2018-07-11T04:35:16.004Z,11.83
2018-07-11T04:37:44.256Z,11.53
2018-07-11T04:40:12.541Z,14.13
2018-07-11T04:42:40.807Z,12.97
2018-07-11T04:45:09.085Z,12.73
2018-07-11T04:47:37.357Z,14.60
2018-07-11T04:50:05.604Z,14.57
2018-07-11T04:52:33.868Z,14.87
2018-07-11T04:55:02.101Z,14.60
2018-07-11T04:57:30.354Z,13.80
2018-07-11T04:59:58.784Z,13.93
2018-07-11T05:02:27.073Z,13.87
2018-07-11T05:04:55.274Z,14.20
2018-07-11T05:07:23.488Z,16.27
2018-07-11T05:09:51.716Z,15.67
2018-07-11T05:12:20.888Z,16.13
2018-07-11T05:14:49.096Z,16.33
2018-07-11T05:17:17.423Z,18.53
2018-07-11T05:19:45.616Z,16.57
2018-07-11T05:22:13.841Z,18.40
2018-07-11T05:24:42.120Z,20.70
2018-07-11T05:27:10.404Z,18.70
2018-07-11T05:29:38.604Z,18.43
2018-07-11T05:32:06.855Z,17.50
2018-07-11T05:34:35.132Z,19.37
2018-07-11T05:37:03.389Z,19.43
2018-07-11T05:39:31.648Z,15.43
2018-07-11T05:41:59.864Z,17.00
2018-07-11T05:44:28.105Z,16.80
2018-07-11T05:47:01.644Z,16.63
2018-07-11T05:49:30.317Z,16.37
2018-07-11T05:51:58.596Z,13.07
2018-07-11T05:54:26.817Z,15.43
2018-07-11T05:56:55.013Z,15.53
2018-07-11T05:59:23.447Z,17.67
2018-07-11T06:01:51.708Z,17.73
2018-07-11T06:04:20.248Z,16.93
2018-07-11T06:06:48.728Z,15.47
2018-07-11T06:09:17.105Z,14.67
2018-07-11T06:11:45.322Z,17.20
2018-07-11T06:14:13.572Z,14.60
2018-07-11T06:16:41.848Z,15.57
2018-07-11T06:19:10.164Z,14.47
2018-07-11T06:21:38.501Z,13.57
2018-07-11T06:24:07.153Z,16.20
2018-07-11T06:26:35.412Z,16.17
2018-07-11T06:29:03.641Z,15.60
2018-07-11T06:31:31.860Z,16.67
2018-07-11T06:34:00.085Z,15.70
2018-07-11T06:36:28.309Z,15.57
2018-07-11T06:38:56.584Z,13.87
2018-07-11T06:41:24.801Z,13.63
2018-07-11T06:43:53.285Z,15.07
2018-07-11T06:46:21.513Z,16.77
2018-07-11T06:48:49.748Z,14.83
2018-07-11T06:51:17.989Z,15.13
2018-07-11T06:53:46.209Z,15.40
2018-07-11T06:56:14.417Z,17.80
2018-07-11T06:58:42.661Z,14.73
2018-07-11T07:01:10.914Z,18.27
2018-07-11T07:03:39.453Z,16.53
2018-07-11T07:06:07.636Z,16.57
2018-07-11T07:08:35.841Z,15.63
2018-07-11T07:11:04.072Z,17.37
2018-07-11T07:13:32.306Z,15.63
2018-07-11T07:16:00.526Z,16.70
2018-07-11T07:18:28.765Z,14.50
2018-07-11T07:20:57.005Z,16.73
2018-07-11T07:23:25.227Z,15.90
2018-07-11T07:25:53.449Z,15.57
2018-07-11T07:28:21.688Z,16.00
2018-07-11T07:30:49.944Z,16.17
2018-07-11T07:33:18.192Z,15.03
2018-07-11T07:35:46.504Z,13.53
2018-07-11T07:38:14.705Z,16.50
2018-07-11T07:40:42.908Z,14.57
2018-07-11T07:43:11.149Z,14.07
2018-07-11T07:45:40.600Z,15.23
2018-07-11T07:48:08.873Z,15.43
2018-07-11T07:50:37.152Z,15.53
2018-07-11T07:53:05.463Z,14.07
2018-07-11T07:55:33.745Z,13.83
2018-07-11T07:58:02.048Z,12.70
2018-07-11T08:00:30.325Z,14.83
2018-07-11T08:02:59.032Z,12.47
2018-07-11T08:05:27.289Z,12.43
2018-07-11T08:07:55.537Z,11.30
2018-07-11T08:10:23.892Z,12.93
2018-07-11T08:12:52.110Z,13.93
2018-07-11T08:15:20.334Z,13.47
2018-07-11T08:17:48.558Z,12.57
2018-07-11T08:20:16.798Z,13.27
2018-07-11T08:23:23.046Z,14.50
2018-07-11T08:26:03.605Z,15.27
2018-07-11T08:30:46.961Z,15.13
2018-07-11T08:35:33.611Z,13.13
2018-07-11T08:38:24.306Z,10.30
2018-07-11T08:41:16.279Z,13.40
2018-07-11T08:47:01.899Z,11.23
2018-07-11T08:49:40.306Z,10.10
2018-07-11T08:52:49.884Z,10.90
2018-07-11T08:56:41.157Z,10.23
2018-07-11T08:59:20.881Z,10.20
2018-07-11T09:03:02.277Z,8.93
2018-07-11T09:07:48.101Z,9.07
2018-07-11T09:12:31.780Z,9.77
2018-07-11T09:15:11.324Z,7.63
2018-07-11T09:18:20.245Z,6.87
2018-07-11T09:21:17.773Z,6.43
2018-07-11T09:23:57.376Z,7.23
2018-07-11T09:26:25.592Z,7.00
2018-07-11T09:28:53.878Z,6.43
2018-07-11T09:31:22.116Z,6.10
2018-07-11T09:33:50.569Z,6.73
2018-07-11T09:36:18.841Z,7.60
2018-07-11T09:38:47.162Z,8.17
2018-07-11T09:41:15.340Z,6.90
2018-07-11T09:43:43.837Z,6.70
2018-07-11T09:46:12.077Z,7.40
2018-07-11T09:48:40.305Z,5.77
2018-07-11T09:51:08.985Z,6.17
2018-07-11T09:53:37.632Z,7.40
2018-07-11T09:56:06.329Z,6.50
2018-07-11T09:58:34.589Z,7.03
2018-07-11T10:01:08.244Z,7.23
2018-07-11T10:03:36.508Z,7.00
2018-07-11T10:06:04.785Z,7.40
2018-07-11T10:08:33.020Z,6.43
2018-07-11T10:11:01.235Z,5.93
2018-07-11T10:13:29.436Z,7.10
2018-07-11T10:15:57.681Z,6.60
2018-07-11T10:18:25.912Z,5.70
2018-07-11T10:20:54.129Z,5.53
2018-07-11T10:23:22.344Z,5.63
2018-07-11T10:25:50.628Z,5.53
2018-07-11T10:28:20.080Z,6.80
2018-07-11T10:30:48.688Z,5.47
2018-07-11T10:33:16.931Z,5.77
2018-07-11T10:35:45.145Z,6.27
2018-07-11T10:38:13.538Z,6.50
2018-07-11T10:40:41.865Z,6.53
2018-07-11T10:43:10.429Z,6.13
2018-07-11T10:45:38.674Z,5.30
2018-07-11T10:48:06.906Z,5.00
2018-07-11T10:50:35.159Z,5.20
2018-07-11T10:53:03.344Z,5.00
2018-07-11T10:55:31.581Z,4.87
2018-07-11T10:57:59.887Z,4.50
2018-07-11T11:00:36.664Z,5.30
2018-07-11T11:02:58.790Z,4.73
2018-07-11T11:05:27.012Z,4.00
2018-07-11T11:07:55.279Z,3.70
2018-07-11T11:10:23.489Z,3.30
2018-07-11T11:12:51.716Z,2.90
2018-07-11T11:15:19.932Z,3.53
2018-07-11T11:17:48.145Z,3.53
2018-07-11T11:20:16.376Z,2.60
2018-07-11T11:22:44.677Z,1.90
2018-07-11T11:25:12.925Z,2.33
2018-07-11T11:27:41.153Z,2.60
2018-07-11T11:30:09.360Z,2.20
2018-07-11T11:32:37.598Z,2.60
2018-07-11T11:35:06.117Z,2.30
2018-07-11T11:37:34.397Z,2.60
2018-07-11T11:40:02.642Z,2.63
2018-07-11T11:42:31.253Z,3.20
2018-07-11T11:44:59.101Z,1.77
2018-07-11T11:47:28.496Z,2.20
2018-07-11T11:49:57.498Z,2.40
2018-07-11T11:52:26.006Z,2.40
2018-07-11T11:54:54.693Z,2.10
2018-07-11T11:57:23.357Z,1.53
2018-07-11T11:59:51.906Z,1.50
2018-07-11T12:02:20.216Z,1.77
2018-07-11T12:04:48.456Z,1.60
2018-07-11T12:07:16.744Z,1.63
2018-07-11T12:09:45.017Z,1.43
2018-07-11T12:12:13.275Z,1.20
2018-07-11T12:14:41.476Z,2.13
2018-07-11T12:17:09.789Z,1.50
2018-07-11T12:19:38.037Z,1.53
2018-07-11T12:22:06.436Z,1.60
2018-07-11T12:24:34.710Z,1.50
2018-07-11T12:27:03.025Z,2.23
2018-07-11T12:29:31.240Z,1.87
2018-07-11T12:31:59.461Z,1.37
2018-07-11T12:34:27.685Z,1.30
2018-07-11T12:36:56.711Z,1.57
2018-07-11T12:39:24.984Z,1.53
2018-07-11T12:41:53.245Z,1.27
2018-07-11T12:44:21.500Z,1.70
2018-07-11T12:46:49.760Z,1.70
2018-07-11T12:49:18.026Z,1.30
2018-07-11T12:51:46.257Z,1.53
2018-07-11T12:54:14.514Z,1.47
2018-07-11T12:56:42.745Z,1.53
2018-07-11T12:59:11.014Z,1.77
2018-07-11T13:01:39.326Z,1.90
2018-07-11T13:04:07.669Z,1.73
2018-07-11T13:06:37.528Z,1.90
2018-07-11T13:09:06.714Z,2.30
2018-07-11T13:11:35.014Z,1.93
2018-07-11T13:14:03.301Z,1.60
2018-07-11T13:16:31.621Z,2.27
2018-07-11T13:18:59.808Z,1.80
2018-07-11T13:21:28.048Z,1.87
2018-07-11T13:23:56.272Z,1.57
2018-07-11T13:26:24.484Z,2.00
2018-07-11T13:28:52.741Z,1.60
2018-07-11T13:31:21.013Z,1.87
2018-07-11T13:33:49.336Z,1.93
2018-07-11T13:36:17.565Z,1.90
2018-07-11T13:38:45.785Z,2.13
2018-07-11T13:41:14.100Z,1.80
2018-07-11T13:43:42.360Z,1.47
2018-07-11T13:46:10.591Z,2.03
2018-07-11T13:48:38.798Z,1.87
2018-07-11T13:51:07.053Z,2.13
2018-07-11T13:53:35.336Z,2.10
2018-07-11T13:56:03.620Z,1.77
2018-07-11T13:58:31.883Z,1.73
2018-07-11T14:01:00.247Z,2.07
2018-07-11T14:03:28.504Z,1.93
2018-07-11T14:05:56.745Z,2.50
2018-07-11T14:08:25.924Z,1.80
2018-07-11T14:10:54.345Z,1.70
2018-07-11T14:13:22.588Z,2.30
2018-07-11T14:15:50.791Z,2.10
2018-07-11T14:18:18.997Z,2.40
2018-07-11T14:20:47.204Z,2.20
2018-07-11T14:23:20.593Z,2.30
2018-07-11T14:25:49.532Z,2.50
2018-07-11T14:28:24.400Z,2.20
2018-07-11T14:30:52.641Z,2.53
2018-07-11T14:33:21.454Z,2.70
2018-07-11T14:35:49.681Z,2.83
2018-07-11T14:38:17.941Z,2.10
2018-07-11T14:40:46.191Z,2.40
2018-07-11T14:43:14.421Z,2.33
2018-07-11T14:45:42.706Z,2.07
2018-07-11T14:48:15.169Z,2.67
2018-07-11T14:50:43.824Z,2.50
2018-07-11T14:53:12.193Z,2.27
2018-07-11T14:55:40.445Z,2.60
2018-07-11T14:58:08.689Z,3.17
2018-07-11T15:00:36.937Z,3.23
2018-07-11T15:03:05.196Z,3.30
2018-07-11T15:05:33.444Z,2.93
2018-07-11T15:08:01.739Z,3.90
2018-07-11T15:10:30.010Z,3.27
2018-07-11T15:12:58.280Z,3.63
2018-07-11T15:15:26.521Z,4.00
2018-07-11T15:17:54.748Z,3.67
2018-07-11T15:20:23.021Z,4.93
2018-07-11T15:22:51.333Z,4.13
2018-07-11T15:25:19.549Z,4.13
2018-07-11T15:27:47.824Z,5.40
2018-07-11T15:30:16.085Z,4.83
2018-07-11T15:32:44.404Z,5.03
2018-07-11T15:35:12.608Z,5.23
2018-07-11T15:37:40.857Z,5.60
2018-07-11T15:40:09.121Z,4.20
2018-07-11T15:42:37.381Z,5.70
2018-07-11T15:45:05.968Z,4.40
2018-07-11T15:47:35.737Z,5.53
2018-07-11T15:50:04.189Z,5.37
2018-07-11T15:52:34.458Z,5.07
2018-07-11T15:55:04.485Z,7.17
2018-07-11T15:57:35.201Z,5.47
2018-07-11T16:00:08.773Z,5.60
2018-07-11T16:02:46.934Z,5.50
2018-07-11T16:05:18.415Z,5.40
2018-07-11T16:07:48.770Z,5.30
2018-07-11T16:10:18.676Z,5.00
2018-07-11T16:12:46.973Z,5.40
2018-07-11T16:15:15.228Z,5.10
2018-07-11T16:17:43.453Z,5.83
2018-07-11T16:20:11.673Z,5.53
2018-07-11T16:22:39.920Z,5.47
2018-07-11T16:25:08.145Z,5.43
2018-07-11T16:27:36.461Z,6.13
2018-07-11T16:30:04.802Z,6.13
2018-07-11T16:32:33.047Z,5.60
2018-07-11T16:35:01.273Z,5.17
2018-07-11T16:37:29.521Z,6.40
2018-07-11T16:39:57.772Z,7.53
2018-07-11T16:42:26.005Z,6.53
2018-07-11T16:44:54.257Z,6.13
2018-07-11T16:47:22.580Z,6.27
2018-07-11T16:49:50.974Z,5.10
2018-07-11T16:52:19.253Z,5.60
2018-07-11T16:54:47.529Z,6.83
2018-07-11T16:57:21.435Z,5.23
2018-07-11T16:59:56.688Z,5.50
2018-07-11T17:02:26.061Z,5.90
2018-07-11T17:04:55.900Z,5.97
2018-07-11T17:07:25.609Z,5.50
2018-07-11T17:09:56.369Z,6.13
2018-07-11T17:12:25.492Z,6.30
2018-07-11T17:14:57.761Z,6.77
2018-07-11T17:17:30.348Z,6.13
2018-07-11T17:20:04.077Z,6.07
2018-07-11T17:22:35.173Z,6.63
2018-07-11T17:25:06.433Z,6.13
2018-07-11T17:27:34.741Z,5.90
2018-07-11T17:30:03.980Z,7.60
2018-07-11T17:32:32.581Z,7.33
2018-07-11T17:35:00.852Z,7.73
2018-07-11T17:37:32.494Z,6.93
2018-07-11T17:40:08.905Z,7.73
2018-07-11T17:42:37.164Z,6.53
2018-07-11T17:45:14.615Z,7.47
2018-07-11T17:49:59.305Z,6.23
2018-07-11T17:52:28.612Z,6.20
2018-07-11T17:55:14.269Z,5.87
2018-07-11T17:57:52.021Z,6.43
2018-07-11T18:00:56.969Z,8.30
2018-07-11T18:03:41.950Z,9.83
2018-07-11T18:06:25.600Z,8.57
2018-07-11T18:09:05.569Z,7.40
2018-07-11T18:12:44.338Z,7.17
2018-07-11T18:15:26.890Z,6.43
2018-07-11T18:18:16.946Z,6.67
2018-07-11T18:20:51.369Z,7.77
2018-07-11T18:23:44.481Z,6.87
2018-07-11T18:26:18.913Z,6.50
2018-07-11T18:28:59.365Z,6.43
2018-07-11T18:31:46.105Z,5.93
2018-07-11T18:34:27.323Z,6.30
2018-07-11T18:37:07.785Z,7.23
2018-07-11T18:39:44.403Z,6.73
2018-07-11T18:42:49.081Z,5.57
2018-07-11T18:48:31.245Z,6.90
2018-07-11T18:51:06.421Z,6.33
2018-07-11T18:54:13.989Z,6.57
2018-07-11T18:56:57.960Z,7.27
2018-07-11T18:59:35.406Z,7.57
2018-07-11T19:02:14.435Z,5.63
2018-07-11T19:05:22.264Z,7.40
2018-07-11T19:07:55.314Z,6.30
2018-07-11T19:11:36.261Z,7.37
2018-07-11T19:14:08.905Z,6.23
2018-07-11T19:16:56.845Z,7.13
2018-07-11T19:19:33.024Z,6.97
2018-07-11T19:22:03.273Z,7.10
2018-07-11T19:24:49.017Z,6.67
2018-07-11T19:27:31.109Z,8.00
2018-07-11T19:30:22.165Z,7.23
2018-07-11T19:33:00.944Z,7.60
2018-07-11T19:37:42.908Z,7.77
2018-07-11T19:40:15.094Z,8.70
2018-07-11T19:45:29.403Z,7.27
2018-07-11T19:50:16.948Z,6.87
2018-07-11T19:52:53.585Z,8.03
2018-07-11T19:56:37.157Z,8.27
2018-07-11T19:59:05.420Z,8.70
2018-07-11T20:01:33.668Z,8.60
2018-07-11T20:04:01.965Z,8.83
2018-07-11T20:06:30.308Z,8.33
2018-07-11T20:08:58.641Z,8.90
2018-07-11T20:11:26.910Z,7.93
2018-07-11T20:13:55.491Z,7.83
2018-07-11T20:16:24.386Z,9.03
2018-07-11T20:18:52.767Z,8.50
2018-07-11T20:21:21.685Z,9.10
2018-07-11T20:23:49.988Z,8.00
2018-07-11T20:26:19.096Z,9.40
2018-07-11T20:28:47.373Z,8.83
2018-07-11T20:31:16.058Z,9.33
2018-07-11T20:33:44.364Z,7.37
2018-07-11T20:36:12.845Z,8.97
2018-07-11T20:38:41.745Z,8.70
2018-07-11T20:41:10.136Z,8.50
2018-07-11T20:43:38.404Z,9.90
2018-07-11T20:46:07.337Z,9.23
2018-07-11T20:48:37.256Z,9.87
2018-07-11T20:51:05.743Z,9.97
2018-07-11T20:53:33.978Z,9.70
2018-07-11T20:56:02.180Z,11.47
2018-07-11T20:58:41.605Z,12.60
2018-07-11T21:01:21.140Z,12.50
2018-07-11T21:07:09.759Z,13.17
2018-07-11T21:09:49.777Z,12.37
2018-07-11T21:14:32.029Z,14.37
2018-07-11T21:17:14.780Z,14.57
2018-07-11T21:19:43.038Z,13.87
2018-07-11T21:22:11.237Z,13.60
2018-07-11T21:24:39.497Z,14.37
2018-07-11T21:27:07.763Z,14.87
2018-07-11T21:29:36.040Z,16.13
2018-07-11T21:32:04.292Z,15.03
2018-07-11T21:34:32.531Z,15.43
2018-07-11T21:37:00.845Z,15.17
2018-07-11T21:39:29.193Z,14.03
2018-07-11T21:41:57.444Z,16.37
2018-07-11T21:44:25.692Z,15.33
2018-07-11T21:46:53.913Z,16.37
2018-07-11T21:49:23.031Z,16.03
2018-07-11T21:51:51.657Z,13.97
2018-07-11T21:54:19.905Z,15.23
2018-07-11T21:56:48.121Z,14.00
2018-07-11T21:59:16.367Z,14.40
2018-07-11T22:01:44.601Z,14.27
2018-07-11T22:04:12.856Z,16.10
2018-07-11T22:06:41.077Z,16.67
2018-07-11T22:09:09.333Z,14.60
2018-07-11T22:11:37.565Z,17.73
2018-07-11T22:14:05.868Z,15.97
2018-07-11T22:16:34.141Z,13.50
2018-07-11T22:19:02.394Z,14.83
2018-07-11T22:21:29.509Z,15.17
2018-07-11T22:23:56.629Z,13.67
2018-07-11T22:26:23.740Z,16.43
2018-07-11T22:28:50.864Z,17.17
2018-07-11T22:31:17.968Z,19.13
2018-07-11T22:33:45.113Z,18.73
2018-07-11T22:36:12.224Z,18.33
2018-07-11T22:38:39.368Z,14.30
2018-07-11T22:41:06.488Z,18.20
2018-07-11T22:43:33.614Z,18.67
2018-07-11T22:46:00.755Z,16.43
2018-07-11T22:48:27.857Z,16.97
2018-07-11T22:50:54.976Z,16.37
2018-07-11T22:53:22.133Z,16.30
2018-07-11T22:55:49.274Z,16.97
2018-07-11T22:58:16.400Z,18.13
2018-07-11T23:00:43.521Z,18.70
2018-07-11T23:03:10.638Z,19.20
2018-07-11T23:05:37.772Z,18.97
2018-07-11T23:08:04.909Z,17.03
2018-07-11T23:10:32.025Z,17.57
2018-07-11T23:12:59.277Z,18.40
2018-07-11T23:15:26.384Z,18.93
2018-07-11T23:17:53.500Z,19.10
2018-07-11T23:20:20.683Z,18.13
2018-07-11T23:22:47.749Z,17.83
2018-07-11T23:25:14.874Z,19.90
2018-07-11T23:27:41.988Z,16.50
2018-07-11T23:30:09.117Z,18.33
2018-07-11T23:32:36.236Z,18.83
2018-07-11T23:35:03.361Z,18.17
2018-07-11T23:37:30.472Z,16.37
2018-07-11T23:39:57.599Z,18.33
2018-07-11T23:42:24.717Z,19.30
2018-07-11T23:44:51.838Z,17.80
2018-07-11T23:47:18.945Z,16.73
2018-07-11T23:49:46.070Z,16.37
2018-07-11T23:52:13.181Z,16.13
2018-07-11T23:54:40.309Z,16.13
2018-07-11T23:57:07.421Z,16.30
2018-07-11T23:59:34.573Z,16.40
